sensor_id;sensor_type;location;lat;lon;timestamp;temperature;humidity
19847;DHT22;10084;50.518;8.588;2024-02-23T07:01:57;6.10;91.60
19847;DHT22;10084;50.518;8.588;2024-02-23T07:04:23;6.00;91.90
19847;DHT22;10084;50.518;8.588;2024-02-23T07:06:49;5.90;92.10
19847;DHT22;10084;50.518;8.588;2024-02-23T07:09:14;5.90;92.20
19847;DHT22;10084;50.518;8.588;2024-02-23T07:11:40;5.80;92.30
19847;DHT22;10084;50.518;8.588;2024-02-23T07:14:08;5.80;92.40
19847;DHT22;10084;50.518;8.588;2024-02-23T07:16:38;5.80;92.40
19847;DHT22;10084;50.518;8.588;2024-02-23T07:19:05;5.80;92.40
19847;DHT22;10084;50.518;8.588;2024-02-23T07:21:30;5.80;92.50
19847;DHT22;10084;50.518;8.588;2024-02-23T07:23:56;5.80;92.50
19847;DHT22;10084;50.518;8.588;2024-02-23T07:26:22;5.80;92.50
19847;DHT22;10084;50.518;8.588;2024-02-23T07:28:48;5.80;92.50
19847;DHT22;10084;50.518;8.588;2024-02-23T07:31:15;5.80;92.60
19847;DHT22;10084;50.518;8.588;2024-02-23T07:33:41;5.80;92.70
19847;DHT22;10084;50.518;8.588;2024-02-23T07:36:07;5.80;92.70
19847;DHT22;10084;50.518;8.588;2024-02-23T07:38:34;5.80;92.80
19847;DHT22;10084;50.518;8.588;2024-02-23T07:41:00;5.90;92.80
19847;DHT22;10084;50.518;8.588;2024-02-23T07:43:25;5.90;92.90
19847;DHT22;10084;50.518;8.588;2024-02-23T07:45:52;5.90;92.90
19847;DHT22;10084;50.518;8.588;2024-02-23T07:48:17;6.00;92.90
19847;DHT22;10084;50.518;8.588;2024-02-23T07:50:43;6.00;92.90
19847;DHT22;10084;50.518;8.588;2024-02-23T07:53:09;6.10;92.90
19847;DHT22;10084;50.518;8.588;2024-02-23T07:55:34;6.10;92.90
19847;DHT22;10084;50.518;8.588;2024-02-23T07:58:00;6.20;92.80
19847;DHT22;10084;50.518;8.588;2024-02-23T08:00:27;6.20;92.80
19847;DHT22;10084;50.518;8.588;2024-02-23T08:02:53;6.20;92.80
19847;DHT22;10084;50.518;8.588;2024-02-23T08:05:22;6.30;92.80
19847;DHT22;10084;50.518;8.588;2024-02-23T08:07:49;6.30;92.80
19847;DHT22;10084;50.518;8.588;2024-02-23T08:10:15;6.40;92.90
19847;DHT22;10084;50.518;8.588;2024-02-23T08:12:40;6.50;92.70
19847;DHT22;10084;50.518;8.588;2024-02-23T08:15:06;6.60;92.60
19847;DHT22;10084;50.518;8.588;2024-02-23T08:17:32;6.70;92.60
19847;DHT22;10084;50.518;8.588;2024-02-23T08:19:58;6.80;92.60
19847;DHT22;10084;50.518;8.588;2024-02-23T08:22:23;6.90;92.60
19847;DHT22;10084;50.518;8.588;2024-02-23T08:24:49;7.10;92.50
19847;DHT22;10084;50.518;8.588;2024-02-23T08:27:15;7.20;92.40
19847;DHT22;10084;50.518;8.588;2024-02-23T08:29:41;7.30;92.40
19847;DHT22;10084;50.518;8.588;2024-02-23T08:32:07;7.40;92.30
19847;DHT22;10084;50.518;8.588;2024-02-23T08:34:33;7.50;92.30
19847;DHT22;10084;50.518;8.588;2024-02-23T08:37:00;7.60;92.20
19847;DHT22;10084;50.518;8.588;2024-02-23T08:39:27;7.60;92.10
19847;DHT22;10084;50.518;8.588;2024-02-23T08:41:52;7.60;92.00
19847;DHT22;10084;50.518;8.588;2024-02-23T08:44:18;7.60;92.00
19847;DHT22;10084;50.518;8.588;2024-02-23T08:46:44;7.60;92.10
19847;DHT22;10084;50.518;8.588;2024-02-23T08:49:10;7.60;92.10
19847;DHT22;10084;50.518;8.588;2024-02-23T08:51:36;7.60;92.10
19847;DHT22;10084;50.518;8.588;2024-02-23T08:54:02;7.60;92.10
19847;DHT22;10084;50.518;8.588;2024-02-23T08:56:30;7.60;92.00
19847;DHT22;10084;50.518;8.588;2024-02-23T08:58:57;7.60;91.90
19847;DHT22;10084;50.518;8.588;2024-02-23T09:01:23;7.60;91.80
19847;DHT22;10084;50.518;8.588;2024-02-23T09:03:49;7.60;91.50
19847;DHT22;10084;50.518;8.588;2024-02-23T09:06:14;7.60;91.40
19847;DHT22;10084;50.518;8.588;2024-02-23T09:08:40;7.60;91.20
19847;DHT22;10084;50.518;8.588;2024-02-23T09:11:06;7.60;91.00
19847;DHT22;10084;50.518;8.588;2024-02-23T09:13:32;7.60;91.10
19847;DHT22;10084;50.518;8.588;2024-02-23T09:15:58;7.70;90.90
19847;DHT22;10084;50.518;8.588;2024-02-23T09:18:24;7.80;91.00
19847;DHT22;10084;50.518;8.588;2024-02-23T09:20:49;8.10;91.30
19847;DHT22;10084;50.518;8.588;2024-02-23T09:23:15;8.40;91.10
19847;DHT22;10084;50.518;8.588;2024-02-23T09:25:41;8.80;91.10
19847;DHT22;10084;50.518;8.588;2024-02-23T09:28:07;9.20;91.00
19847;DHT22;10084;50.518;8.588;2024-02-23T09:30:33;9.50;90.90
19847;DHT22;10084;50.518;8.588;2024-02-23T09:32:58;9.70;90.40
19847;DHT22;10084;50.518;8.588;2024-02-23T09:35:24;9.80;89.70
19847;DHT22;10084;50.518;8.588;2024-02-23T09:37:50;9.70;89.20
19847;DHT22;10084;50.518;8.588;2024-02-23T09:40:16;9.50;88.90
19847;DHT22;10084;50.518;8.588;2024-02-23T09:42:42;9.30;88.50
19847;DHT22;10084;50.518;8.588;2024-02-23T09:45:08;9.10;88.30
19847;DHT22;10084;50.518;8.588;2024-02-23T09:47:36;8.90;88.10
19847;DHT22;10084;50.518;8.588;2024-02-23T09:50:04;8.70;87.90
19847;DHT22;10084;50.518;8.588;2024-02-23T09:52:32;8.60;88.20
19847;DHT22;10084;50.518;8.588;2024-02-23T09:54:58;8.80;89.30
19847;DHT22;10084;50.518;8.588;2024-02-23T09:57:23;9.10;89.30
19847;DHT22;10084;50.518;8.588;2024-02-23T09:59:50;9.30;89.00
19847;DHT22;10084;50.518;8.588;2024-02-23T10:02:17;9.60;89.00
19847;DHT22;10084;50.518;8.588;2024-02-23T10:04:43;9.90;89.30
19847;DHT22;10084;50.518;8.588;2024-02-23T10:07:10;10.20;89.30
19847;DHT22;10084;50.518;8.588;2024-02-23T10:09:36;10.60;89.00
19847;DHT22;10084;50.518;8.588;2024-02-23T10:12:02;11.10;88.20
19847;DHT22;10084;50.518;8.588;2024-02-23T10:14:28;11.60;88.00
19847;DHT22;10084;50.518;8.588;2024-02-23T10:16:54;12.30;87.90
19847;DHT22;10084;50.518;8.588;2024-02-23T10:19:21;13.00;87.40
19847;DHT22;10084;50.518;8.588;2024-02-23T10:24:18;13.70;97.80
19847;DHT22;10084;50.518;8.588;2024-02-23T10:26:44;13.80;95.20
19847;DHT22;10084;50.518;8.588;2024-02-23T10:29:10;14.20;95.50
19847;DHT22;10084;50.518;8.588;2024-02-23T10:31:36;15.10;95.20
19847;DHT22;10084;50.518;8.588;2024-02-23T10:34:11;15.90;94.50
19847;DHT22;10084;50.518;8.588;2024-02-23T10:36:42;16.90;94.30
19847;DHT22;10084;50.518;8.588;2024-02-23T10:39:08;17.40;93.50
19847;DHT22;10084;50.518;8.588;2024-02-23T10:41:39;17.70;92.80
19847;DHT22;10084;50.518;8.588;2024-02-23T10:44:09;17.90;92.60
19847;DHT22;10084;50.518;8.588;2024-02-23T10:46:37;18.30;86.50
19847;DHT22;10084;50.518;8.588;2024-02-23T10:49:02;18.00;89.30
19847;DHT22;10084;50.518;8.588;2024-02-23T10:51:28;18.10;89.90
19847;DHT22;10084;50.518;8.588;2024-02-23T10:53:55;19.00;88.00
19847;DHT22;10084;50.518;8.588;2024-02-23T11:03:47;18.40;92.60
19847;DHT22;10084;50.518;8.588;2024-02-23T12:28:41;12.10;94.40
19847;DHT22;10084;50.518;8.588;2024-02-23T12:33:38;13.60;91.10
19847;DHT22;10084;50.518;8.588;2024-02-23T12:36:08;14.50;90.10
19847;DHT22;10084;50.518;8.588;2024-02-23T12:38:35;14.60;88.80
19847;DHT22;10084;50.518;8.588;2024-02-23T12:41:01;14.20;89.00
19847;DHT22;10084;50.518;8.588;2024-02-23T12:43:28;13.90;90.40
19847;DHT22;10084;50.518;8.588;2024-02-23T12:45:54;14.00;90.20
19847;DHT22;10084;50.518;8.588;2024-02-23T12:48:20;14.00;90.10
19847;DHT22;10084;50.518;8.588;2024-02-23T13:25:25;11.00;93.00
19847;DHT22;10084;50.518;8.588;2024-02-23T13:27:50;11.30;91.90
19847;DHT22;10084;50.518;8.588;2024-02-23T13:30:16;11.60;91.40
19847;DHT22;10084;50.518;8.588;2024-02-23T13:32:42;11.80;91.00
19847;DHT22;10084;50.518;8.588;2024-02-23T13:35:08;11.80;91.00
19847;DHT22;10084;50.518;8.588;2024-02-23T13:37:34;11.80;90.80
19847;DHT22;10084;50.518;8.588;2024-02-23T13:40:00;11.70;90.60
19847;DHT22;10084;50.518;8.588;2024-02-23T13:42:26;11.50;90.50
19847;DHT22;10084;50.518;8.588;2024-02-23T13:44:52;11.30;90.60
19847;DHT22;10084;50.518;8.588;2024-02-23T13:47:17;11.20;90.50
19847;DHT22;10084;50.518;8.588;2024-02-23T13:49:43;11.00;90.40
19847;DHT22;10084;50.518;8.588;2024-02-23T13:52:09;10.90;90.30
19847;DHT22;10084;50.518;8.588;2024-02-23T13:54:34;10.90;90.50
19847;DHT22;10084;50.518;8.588;2024-02-23T13:57:00;11.70;90.50
19847;DHT22;10084;50.518;8.588;2024-02-23T13:59:26;12.60;88.00
19847;DHT22;10084;50.518;8.588;2024-02-23T14:01:52;13.50;86.50
19847;DHT22;10084;50.518;8.588;2024-02-23T14:04:18;14.30;84.70
19847;DHT22;10084;50.518;8.588;2024-02-23T14:06:44;14.20;84.20
19847;DHT22;10084;50.518;8.588;2024-02-23T14:09:10;14.20;84.70
19847;DHT22;10084;50.518;8.588;2024-02-23T14:11:36;14.60;83.50
19847;DHT22;10084;50.518;8.588;2024-02-23T14:14:01;14.60;82.90
19847;DHT22;10084;50.518;8.588;2024-02-23T14:16:28;14.20;82.10
19847;DHT22;10084;50.518;8.588;2024-02-23T18:09:21;6.30;96.10
19847;DHT22;10084;50.518;8.588;2024-02-23T18:11:47;6.30;94.60
19847;DHT22;10084;50.518;8.588;2024-02-23T18:14:13;6.40;94.60
19847;DHT22;10084;50.518;8.588;2024-02-23T18:16:39;6.50;94.80
19847;DHT22;10084;50.518;8.588;2024-02-23T18:19:05;6.60;95.10
19847;DHT22;10084;50.518;8.588;2024-02-23T18:21:31;6.70;95.10
19847;DHT22;10084;50.518;8.588;2024-02-23T18:23:57;6.70;95.10
19847;DHT22;10084;50.518;8.588;2024-02-23T18:26:23;6.80;95.10
19847;DHT22;10084;50.518;8.588;2024-02-23T18:28:48;6.90;90.30
19847;DHT22;10084;50.518;8.588;2024-02-23T18:31:20;6.90;90.40
19847;DHT22;10084;50.518;8.588;2024-02-23T18:33:46;6.90;90.40
19847;DHT22;10084;50.518;8.588;2024-02-23T18:36:12;6.80;90.30
19847;DHT22;10084;50.518;8.588;2024-02-23T18:38:41;6.80;90.30
19847;DHT22;10084;50.518;8.588;2024-02-23T18:41:07;6.70;90.30
19847;DHT22;10084;50.518;8.588;2024-02-23T18:43:34;6.50;90.30
19847;DHT22;10084;50.518;8.588;2024-02-23T18:46:04;6.40;90.40
19847;DHT22;10084;50.518;8.588;2024-02-23T18:48:31;6.30;90.50
19847;DHT22;10084;50.518;8.588;2024-02-23T18:50:57;6.20;90.50
19847;DHT22;10084;50.518;8.588;2024-02-23T18:53:23;6.10;90.70
19847;DHT22;10084;50.518;8.588;2024-02-23T18:55:48;6.00;90.80
19847;DHT22;10084;50.518;8.588;2024-02-23T18:58:14;5.90;90.90
19847;DHT22;10084;50.518;8.588;2024-02-23T19:00:40;5.90;91.10
19847;DHT22;10084;50.518;8.588;2024-02-23T19:03:05;5.90;91.40
19847;DHT22;10084;50.518;8.588;2024-02-23T19:05:31;5.90;91.40
19847;DHT22;10084;50.518;8.588;2024-02-23T19:07:57;5.80;91.50
19847;DHT22;10084;50.518;8.588;2024-02-23T19:10:23;5.80;91.50
19847;DHT22;10084;50.518;8.588;2024-02-23T19:12:49;5.80;91.60
19847;DHT22;10084;50.518;8.588;2024-02-23T19:15:15;5.80;91.60
19847;DHT22;10084;50.518;8.588;2024-02-23T19:17:41;5.70;91.60
19847;DHT22;10084;50.518;8.588;2024-02-23T19:20:07;5.70;91.30
19847;DHT22;10084;50.518;8.588;2024-02-23T19:22:38;5.70;91.30
19847;DHT22;10084;50.518;8.588;2024-02-23T19:25:07;5.60;91.30
19847;DHT22;10084;50.518;8.588;2024-02-23T19:27:39;5.60;91.40
19847;DHT22;10084;50.518;8.588;2024-02-23T19:30:05;5.60;91.50
19847;DHT22;10084;50.518;8.588;2024-02-23T19:32:34;5.60;91.90
19847;DHT22;10084;50.518;8.588;2024-02-23T19:35:00;5.50;91.90
19847;DHT22;10084;50.518;8.588;2024-02-23T19:37:26;5.50;91.90
19847;DHT22;10084;50.518;8.588;2024-02-23T19:39:52;5.40;91.90
19847;DHT22;10084;50.518;8.588;2024-02-23T19:42:18;5.40;92.10
19847;DHT22;10084;50.518;8.588;2024-02-23T19:44:43;5.30;92.20
19847;DHT22;10084;50.518;8.588;2024-02-23T19:47:09;5.30;92.20
19847;DHT22;10084;50.518;8.588;2024-02-23T19:49:35;5.20;92.20
19847;DHT22;10084;50.518;8.588;2024-02-23T19:52:01;5.20;92.20
19847;DHT22;10084;50.518;8.588;2024-02-23T19:54:27;5.10;92.20
19847;DHT22;10084;50.518;8.588;2024-02-23T19:56:53;5.00;92.30
19847;DHT22;10084;50.518;8.588;2024-02-23T19:59:19;5.00;92.40
19847;DHT22;10084;50.518;8.588;2024-02-23T20:01:44;5.00;92.50
19847;DHT22;10084;50.518;8.588;2024-02-23T20:04:10;5.00;92.40
19847;DHT22;10084;50.518;8.588;2024-02-23T20:06:36;5.10;92.40
19847;DHT22;10084;50.518;8.588;2024-02-23T20:09:01;5.20;92.50
19847;DHT22;10084;50.518;8.588;2024-02-23T20:11:27;5.20;92.50
19847;DHT22;10084;50.518;8.588;2024-02-23T20:13:53;5.20;92.40
19847;DHT22;10084;50.518;8.588;2024-02-23T20:16:19;5.30;92.50
19847;DHT22;10084;50.518;8.588;2024-02-23T20:18:45;5.30;92.50
19847;DHT22;10084;50.518;8.588;2024-02-23T20:21:11;5.30;92.40
19847;DHT22;10084;50.518;8.588;2024-02-23T20:23:37;5.30;92.50
19847;DHT22;10084;50.518;8.588;2024-02-23T20:26:03;5.30;92.50
19847;DHT22;10084;50.518;8.588;2024-02-23T20:28:28;5.40;92.50
19847;DHT22;10084;50.518;8.588;2024-02-23T20:30:54;5.40;92.50
19847;DHT22;10084;50.518;8.588;2024-02-23T20:33:22;5.40;92.60
19847;DHT22;10084;50.518;8.588;2024-02-23T20:35:48;5.40;92.60
19847;DHT22;10084;50.518;8.588;2024-02-23T20:38:14;5.40;92.60
19847;DHT22;10084;50.518;8.588;2024-02-23T20:40:40;5.30;92.60
19847;DHT22;10084;50.518;8.588;2024-02-23T20:43:06;5.30;92.60
19847;DHT22;10084;50.518;8.588;2024-02-23T20:45:32;5.20;92.60
19847;DHT22;10084;50.518;8.588;2024-02-23T20:47:58;5.20;93.10
19847;DHT22;10084;50.518;8.588;2024-02-23T20:50:23;5.10;92.90
19847;DHT22;10084;50.518;8.588;2024-02-23T20:52:49;5.10;93.00
19847;DHT22;10084;50.518;8.588;2024-02-23T20:55:15;5.10;93.00
19847;DHT22;10084;50.518;8.588;2024-02-23T20:57:40;5.10;93.10
19847;DHT22;10084;50.518;8.588;2024-02-23T21:00:07;5.00;93.10
19847;DHT22;10084;50.518;8.588;2024-02-23T21:02:33;5.00;93.20
19847;DHT22;10084;50.518;8.588;2024-02-23T21:04:59;5.00;93.20
19847;DHT22;10084;50.518;8.588;2024-02-23T21:07:25;5.00;93.20
19847;DHT22;10084;50.518;8.588;2024-02-23T21:09:50;5.00;93.20
19847;DHT22;10084;50.518;8.588;2024-02-23T21:12:16;5.00;93.40
19847;DHT22;10084;50.518;8.588;2024-02-23T21:14:42;5.00;93.40
19847;DHT22;10084;50.518;8.588;2024-02-23T21:17:07;5.10;93.40
19847;DHT22;10084;50.518;8.588;2024-02-23T21:19:33;5.10;93.30
19847;DHT22;10084;50.518;8.588;2024-02-23T21:21:59;5.10;93.40
19847;DHT22;10084;50.518;8.588;2024-02-23T21:24:25;5.10;93.40
19847;DHT22;10084;50.518;8.588;2024-02-23T21:26:51;5.10;93.40
19847;DHT22;10084;50.518;8.588;2024-02-23T21:29:19;5.20;93.40
19847;DHT22;10084;50.518;8.588;2024-02-23T21:31:44;5.20;93.40
19847;DHT22;10084;50.518;8.588;2024-02-23T21:34:10;5.30;93.40
19847;DHT22;10084;50.518;8.588;2024-02-23T21:36:36;5.40;93.30
19847;DHT22;10084;50.518;8.588;2024-02-23T21:39:02;5.40;93.30
19847;DHT22;10084;50.518;8.588;2024-02-23T21:41:29;5.50;93.30
19847;DHT22;10084;50.518;8.588;2024-02-23T21:43:55;5.60;93.30
19847;DHT22;10084;50.518;8.588;2024-02-23T21:46:21;5.60;93.20
19847;DHT22;10084;50.518;8.588;2024-02-23T21:48:46;5.70;93.20
19847;DHT22;10084;50.518;8.588;2024-02-23T21:51:14;5.80;93.20
19847;DHT22;10084;50.518;8.588;2024-02-23T21:53:39;5.80;93.10
19847;DHT22;10084;50.518;8.588;2024-02-23T21:56:06;5.80;93.00
19847;DHT22;10084;50.518;8.588;2024-02-23T21:58:32;5.70;92.90
19847;DHT22;10084;50.518;8.588;2024-02-23T22:00:58;5.60;92.80
19847;DHT22;10084;50.518;8.588;2024-02-23T22:03:24;5.50;92.90
19847;DHT22;10084;50.518;8.588;2024-02-23T22:05:51;5.30;92.90
19847;DHT22;10084;50.518;8.588;2024-02-23T22:08:17;5.20;93.00
19847;DHT22;10084;50.518;8.588;2024-02-23T22:10:43;5.00;93.10
19847;DHT22;10084;50.518;8.588;2024-02-23T22:13:09;4.90;93.30
19847;DHT22;10084;50.518;8.588;2024-02-23T22:15:35;4.90;93.50
19847;DHT22;10084;50.518;8.588;2024-02-23T22:18:00;4.90;93.40
19847;DHT22;10084;50.518;8.588;2024-02-23T22:20:26;4.90;93.40
19847;DHT22;10084;50.518;8.588;2024-02-23T22:22:54;5.00;93.40
19847;DHT22;10084;50.518;8.588;2024-02-23T22:25:20;4.90;93.40
19847;DHT22;10084;50.518;8.588;2024-02-23T22:27:46;4.90;93.40
19847;DHT22;10084;50.518;8.588;2024-02-23T22:30:12;4.90;93.10
19847;DHT22;10084;50.518;8.588;2024-02-23T22:32:38;4.80;93.00
19847;DHT22;10084;50.518;8.588;2024-02-23T22:35:04;4.80;92.70
19847;DHT22;10084;50.518;8.588;2024-02-23T22:37:30;4.70;92.90
19847;DHT22;10084;50.518;8.588;2024-02-23T22:39:56;4.60;93.00
19847;DHT22;10084;50.518;8.588;2024-02-23T22:42:22;4.50;93.10
19847;DHT22;10084;50.518;8.588;2024-02-23T22:44:48;4.40;93.30
19847;DHT22;10084;50.518;8.588;2024-02-23T22:47:13;4.40;93.40
19847;DHT22;10084;50.518;8.588;2024-02-23T22:49:40;4.30;93.20
19847;DHT22;10084;50.518;8.588;2024-02-23T22:52:09;4.20;93.00
19847;DHT22;10084;50.518;8.588;2024-02-23T22:54:35;4.20;93.10
19847;DHT22;10084;50.518;8.588;2024-02-23T22:57:01;4.20;93.40
19847;DHT22;10084;50.518;8.588;2024-02-23T22:59:26;4.10;93.20
19847;DHT22;10084;50.518;8.588;2024-02-23T23:01:52;4.20;93.10
19847;DHT22;10084;50.518;8.588;2024-02-23T23:04:18;4.10;93.20
19847;DHT22;10084;50.518;8.588;2024-02-23T23:06:43;4.20;93.20
19847;DHT22;10084;50.518;8.588;2024-02-23T23:09:11;4.20;93.20
19847;DHT22;10084;50.518;8.588;2024-02-23T23:11:38;4.20;93.20
19847;DHT22;10084;50.518;8.588;2024-02-23T23:14:04;4.20;93.20
19847;DHT22;10084;50.518;8.588;2024-02-23T23:16:29;4.20;93.20
19847;DHT22;10084;50.518;8.588;2024-02-23T23:18:55;4.20;93.10
19847;DHT22;10084;50.518;8.588;2024-02-23T23:21:21;4.20;93.20
19847;DHT22;10084;50.518;8.588;2024-02-23T23:23:48;4.20;93.20
19847;DHT22;10084;50.518;8.588;2024-02-23T23:26:14;4.20;93.20
19847;DHT22;10084;50.518;8.588;2024-02-23T23:28:42;4.20;93.20
19847;DHT22;10084;50.518;8.588;2024-02-23T23:31:08;4.10;93.20
19847;DHT22;10084;50.518;8.588;2024-02-23T23:33:34;4.10;93.50
19847;DHT22;10084;50.518;8.588;2024-02-23T23:35:59;4.10;93.50
19847;DHT22;10084;50.518;8.588;2024-02-23T23:38:25;4.10;93.60
19847;DHT22;10084;50.518;8.588;2024-02-23T23:40:51;4.10;93.70
19847;DHT22;10084;50.518;8.588;2024-02-23T23:43:17;4.10;94.00
19847;DHT22;10084;50.518;8.588;2024-02-23T23:45:42;4.10;93.70
19847;DHT22;10084;50.518;8.588;2024-02-23T23:48:08;4.00;93.70
19847;DHT22;10084;50.518;8.588;2024-02-23T23:50:35;4.00;93.70
19847;DHT22;10084;50.518;8.588;2024-02-23T23:53:01;4.00;93.70
19847;DHT22;10084;50.518;8.588;2024-02-23T23:55:27;4.00;93.80
19847;DHT22;10084;50.518;8.588;2024-02-23T23:57:53;4.00;93.80
